createdAt,value
2023-07-16T00:00:11.166Z,-9
2023-07-16T00:01:17.410Z,-9
2023-07-16T00:02:23.681Z,-9
2023-07-16T00:03:28.971Z,-10
2023-07-16T00:04:35.238Z,-9
2023-07-16T00:05:41.538Z,-10
2023-07-16T00:06:47.788Z,-9
2023-07-16T00:07:54.059Z,-10
2023-07-16T00:09:00.328Z,-10
2023-07-16T00:10:06.594Z,-9
2023-07-16T00:11:12.920Z,-10
2023-07-16T00:12:19.144Z,-10
2023-07-16T00:13:25.433Z,-10
2023-07-16T00:14:31.690Z,-10
2023-07-16T00:15:37.966Z,-10
2023-07-16T00:16:44.248Z,-10
2023-07-16T00:17:49.522Z,-10
2023-07-16T00:18:55.792Z,-10
2023-07-16T00:20:02.069Z,-9
2023-07-16T00:21:08.334Z,-9
2023-07-16T00:22:14.610Z,-10
2023-07-16T00:23:20.886Z,-10
2023-07-16T00:24:27.167Z,-9
2023-07-16T00:25:33.430Z,-7
2023-07-16T00:26:39.694Z,-6
2023-07-16T00:27:45.972Z,-6
2023-07-16T00:28:52.241Z,-7
2023-07-16T00:29:58.509Z,-9
2023-07-16T00:31:04.793Z,-9
2023-07-16T00:32:10.080Z,-9
2023-07-16T00:33:16.363Z,-7
2023-07-16T00:34:22.650Z,-7
2023-07-16T00:35:28.899Z,-6
2023-07-16T00:36:35.160Z,-9
2023-07-16T00:37:41.435Z,-6
2023-07-16T00:38:47.704Z,-6
2023-07-16T00:39:53.981Z,-5
2023-07-16T00:41:00.253Z,-6
2023-07-16T00:42:06.528Z,-5
2023-07-16T00:43:12.824Z,-4
2023-07-16T00:44:19.063Z,-4
2023-07-16T00:45:25.379Z,-2
2023-07-16T00:46:30.656Z,-2
2023-07-16T00:47:36.923Z,-5
2023-07-16T00:48:43.182Z,-3
2023-07-16T00:49:49.470Z,-7
2023-07-16T00:50:55.709Z,-7
2023-07-16T00:52:02.017Z,-6
2023-07-16T00:53:08.273Z,-5
2023-07-16T00:54:14.536Z,-6
2023-07-16T00:55:20.800Z,-5
2023-07-16T00:56:27.068Z,-7
2023-07-16T00:57:33.342Z,-5
2023-07-16T00:58:39.620Z,-5
2023-07-16T00:59:45.882Z,-5
2023-07-16T01:00:51.187Z,-4
2023-07-16T01:01:57.444Z,-4
2023-07-16T01:03:03.721Z,-3
2023-07-16T01:04:09.985Z,-4
2023-07-16T01:05:16.262Z,-4
2023-07-16T01:06:22.550Z,-4
2023-07-16T01:07:28.892Z,-4
2023-07-16T01:08:35.085Z,-4
2023-07-16T01:09:41.354Z,-5
2023-07-16T01:10:47.617Z,-5
2023-07-16T01:11:53.890Z,-4
2023-07-16T01:13:00.163Z,-2
2023-07-16T01:14:06.439Z,-2
2023-07-16T01:15:11.720Z,-2
2023-07-16T01:16:17.992Z,-1
2023-07-16T01:17:24.289Z,-2
2023-07-16T01:18:30.530Z,-4
2023-07-16T01:19:36.812Z,-4
2023-07-16T01:20:43.087Z,-4
2023-07-16T01:21:49.362Z,-4
2023-07-16T01:22:55.666Z,-6
2023-07-16T01:24:01.894Z,-5
2023-07-16T01:25:08.166Z,-5
2023-07-16T01:26:14.445Z,-9
2023-07-16T01:27:20.714Z,-9
2023-07-16T01:28:26.998Z,-5
2023-07-16T01:29:32.286Z,-7
2023-07-16T01:30:38.565Z,-8
2023-07-16T01:31:44.824Z,-8
2023-07-16T01:32:51.092Z,-9
2023-07-16T01:33:57.371Z,-7
2023-07-16T01:35:03.635Z,-10
2023-07-16T01:36:09.919Z,-10
2023-07-16T01:37:16.177Z,-7
2023-07-16T01:38:22.456Z,-7
2023-07-16T01:39:28.723Z,-9
2023-07-16T01:40:35.005Z,-8
2023-07-16T01:41:41.271Z,-10
2023-07-16T01:42:47.557Z,-9
2023-07-16T01:43:52.849Z,-8
2023-07-16T01:44:59.124Z,-10
2023-07-16T01:46:05.362Z,-10
2023-07-16T01:47:11.650Z,-9
2023-07-16T01:48:17.917Z,-9
2023-07-16T01:49:24.192Z,-10
2023-07-16T01:50:30.458Z,-10
2023-07-16T01:51:36.735Z,-10
2023-07-16T01:52:42.998Z,-10
2023-07-16T01:53:49.270Z,-10
2023-07-16T01:54:55.548Z,-10
2023-07-16T01:56:01.821Z,-10
2023-07-16T01:57:08.110Z,-10
2023-07-16T01:58:13.379Z,-10
2023-07-16T01:59:19.655Z,-10
2023-07-16T02:00:25.928Z,-9
2023-07-16T02:01:32.191Z,-9
2023-07-16T02:02:38.471Z,-8
2023-07-16T02:03:44.747Z,-8
2023-07-16T02:04:50.027Z,-8
2023-07-16T02:05:56.337Z,-8
2023-07-16T02:07:02.576Z,-8
2023-07-16T02:08:08.857Z,-7
2023-07-16T02:09:15.117Z,-7
2023-07-16T02:10:21.391Z,-8
2023-07-16T02:11:27.663Z,-8
2023-07-16T02:12:33.933Z,-6
2023-07-16T02:13:40.220Z,-6
2023-07-16T02:14:46.477Z,-7
2023-07-16T02:15:52.756Z,-8
2023-07-16T02:16:59.026Z,-8
2023-07-16T02:18:05.300Z,-5
2023-07-16T02:19:10.597Z,-3
2023-07-16T02:20:16.887Z,-10
2023-07-16T02:21:23.125Z,-10
2023-07-16T02:22:29.401Z,-10
2023-07-16T02:23:35.691Z,-10
2023-07-16T02:24:41.950Z,-10
2023-07-16T02:25:48.216Z,-10
2023-07-16T02:26:54.491Z,-10
2023-07-16T02:28:00.764Z,-10
2023-07-16T02:29:07.033Z,-10
2023-07-16T02:30:13.306Z,-10
2023-07-16T02:31:19.600Z,-10
2023-07-16T02:32:25.844Z,-10
2023-07-16T02:33:31.130Z,-10
2023-07-16T02:34:37.408Z,-10
2023-07-16T02:35:43.681Z,-10
2023-07-16T02:36:49.953Z,-10
2023-07-16T02:37:56.262Z,-10
2023-07-16T02:39:02.508Z,-10
2023-07-16T02:40:08.783Z,-10
2023-07-16T02:41:15.045Z,-10
2023-07-16T02:42:21.314Z,-10
2023-07-16T02:43:27.588Z,-10
2023-07-16T02:44:33.861Z,-10
2023-07-16T02:45:40.130Z,-10
2023-07-16T02:46:46.403Z,-10
2023-07-16T02:47:51.704Z,-10
2023-07-16T02:48:57.968Z,-10
2023-07-16T02:50:04.233Z,-10
2023-07-16T02:51:10.518Z,-10
2023-07-16T02:52:16.834Z,-10
2023-07-16T02:53:23.048Z,-10
2023-07-16T02:54:29.316Z,-10
2023-07-16T02:55:35.594Z,-10
2023-07-16T02:56:41.870Z,-10
2023-07-16T02:57:48.138Z,-10
2023-07-16T02:58:54.414Z,-10
2023-07-16T03:00:00.682Z,-10
2023-07-16T03:01:06.958Z,-10
2023-07-16T03:02:12.243Z,-10
2023-07-16T03:03:18.509Z,-10
2023-07-16T03:04:24.781Z,-10
2023-07-16T03:05:31.062Z,-10
2023-07-16T03:06:37.326Z,-10
2023-07-16T03:07:43.611Z,-10
2023-07-16T03:08:49.893Z,-10
2023-07-16T03:09:56.145Z,-10
2023-07-16T03:11:02.424Z,-10
2023-07-16T03:12:08.692Z,-10
2023-07-16T03:13:14.963Z,-10
2023-07-16T03:14:21.224Z,-10
2023-07-16T03:15:27.514Z,-10
2023-07-16T03:16:32.794Z,-10
2023-07-16T03:17:39.066Z,-10
2023-07-16T03:18:45.345Z,-10
2023-07-16T03:19:51.616Z,-10
2023-07-16T03:20:57.878Z,-10
2023-07-16T03:22:04.164Z,-10
2023-07-16T03:23:10.433Z,-10
2023-07-16T03:24:16.700Z,-10
2023-07-16T03:25:22.967Z,-10
2023-07-16T03:26:29.247Z,-10
2023-07-16T03:27:35.522Z,-10
2023-07-16T03:28:41.798Z,-10
2023-07-16T03:29:48.057Z,-10
2023-07-16T03:30:53.354Z,-10
2023-07-16T03:31:59.630Z,-10
2023-07-16T03:33:05.894Z,-10
2023-07-16T03:34:12.159Z,-10
2023-07-16T03:35:18.448Z,-10
2023-07-16T03:36:24.711Z,-10
2023-07-16T03:37:30.987Z,-10
2023-07-16T03:38:37.255Z,-10
2023-07-16T03:39:43.528Z,-10
2023-07-16T03:40:49.799Z,-10
2023-07-16T03:41:56.074Z,-10
2023-07-16T03:43:02.340Z,-10
2023-07-16T03:44:08.620Z,-10
2023-07-16T03:45:13.900Z,-10
2023-07-16T03:46:20.175Z,-10
2023-07-16T03:47:26.456Z,-10
2023-07-16T03:48:32.717Z,-10
2023-07-16T03:49:39.007Z,-10
2023-07-16T03:50:45.289Z,-10
2023-07-16T03:51:51.539Z,-10
2023-07-16T03:52:57.884Z,-10
2023-07-16T03:54:04.079Z,-10
2023-07-16T03:55:10.400Z,-10
2023-07-16T03:56:16.628Z,-10
2023-07-16T03:57:22.890Z,-10
2023-07-16T03:58:29.159Z,-10
2023-07-16T03:59:34.451Z,-10
2023-07-16T04:00:40.761Z,-10
2023-07-16T04:01:47.002Z,-10
2023-07-16T04:02:53.289Z,-10
2023-07-16T04:03:59.544Z,-10
2023-07-16T04:05:05.819Z,-10
2023-07-16T04:06:12.079Z,-10
2023-07-16T04:07:18.356Z,-10
2023-07-16T04:08:24.625Z,-10
2023-07-16T04:09:30.906Z,-10
2023-07-16T04:10:37.171Z,-10
2023-07-16T04:11:43.467Z,-10
2023-07-16T04:12:49.715Z,-10
2023-07-16T04:13:55.008Z,-10
2023-07-16T04:15:01.277Z,-10
2023-07-16T04:16:07.557Z,-10
2023-07-16T04:17:13.838Z,-10
2023-07-16T04:18:20.100Z,-10
2023-07-16T04:19:26.372Z,-10
2023-07-16T04:20:32.642Z,-10
2023-07-16T04:21:38.918Z,-10
2023-07-16T04:22:45.189Z,-10
2023-07-16T04:23:51.452Z,-10
2023-07-16T04:24:57.750Z,-10
2023-07-16T04:26:03.992Z,-10
2023-07-16T04:27:10.270Z,-10
2023-07-16T04:28:15.586Z,-10
2023-07-16T04:29:21.839Z,-10
2023-07-16T04:30:28.100Z,-10
2023-07-16T04:31:34.374Z,-10
2023-07-16T04:32:40.643Z,-10
2023-07-16T04:33:46.924Z,-10
2023-07-16T04:34:53.193Z,-10
2023-07-16T04:35:59.460Z,-10
2023-07-16T04:37:05.736Z,-10
2023-07-16T04:38:12.006Z,-10
2023-07-16T04:39:18.282Z,-10
2023-07-16T04:40:24.559Z,-10
2023-07-16T04:41:30.818Z,-10
2023-07-16T04:42:37.092Z,-10
2023-07-16T04:43:42.387Z,-10
2023-07-16T04:44:48.653Z,-10
2023-07-16T04:45:54.924Z,-10
2023-07-16T04:47:01.209Z,-10
2023-07-16T04:48:07.476Z,-10
2023-07-16T04:49:13.744Z,-10
2023-07-16T04:50:20.016Z,-10
2023-07-16T04:51:26.322Z,-10
2023-07-16T04:52:32.566Z,-10
2023-07-16T04:53:38.839Z,-10
2023-07-16T04:54:45.111Z,-10
2023-07-16T04:55:51.370Z,-10
2023-07-16T04:56:57.662Z,-10
2023-07-16T04:58:02.936Z,-10
2023-07-16T04:59:09.209Z,-10
2023-07-16T05:00:15.485Z,-10
2023-07-16T05:01:21.757Z,-10
2023-07-16T05:02:28.023Z,-10
2023-07-16T05:03:34.295Z,-10
2023-07-16T05:04:40.565Z,-10
2023-07-16T05:05:46.831Z,-10
2023-07-16T05:06:53.120Z,-10
2023-07-16T05:07:59.383Z,-10
2023-07-16T05:09:05.654Z,-10
2023-07-16T05:10:11.921Z,-10
2023-07-16T05:11:18.206Z,-10
2023-07-16T05:12:23.507Z,-10
2023-07-16T05:13:29.818Z,-10
2023-07-16T05:14:36.048Z,-10
2023-07-16T05:15:42.302Z,-10
2023-07-16T05:16:48.574Z,-10
2023-07-16T05:17:54.849Z,-10
2023-07-16T05:19:01.117Z,-10
2023-07-16T05:20:07.386Z,-10
2023-07-16T05:21:13.674Z,-10
2023-07-16T05:22:19.988Z,-10
2023-07-16T05:23:26.207Z,-10
2023-07-16T05:24:32.472Z,-10
2023-07-16T05:25:38.767Z,-10
2023-07-16T05:26:44.048Z,-10
2023-07-16T05:27:50.312Z,-10
2023-07-16T05:28:56.587Z,-10
2023-07-16T05:30:02.854Z,-10
2023-07-16T05:31:09.142Z,-10
2023-07-16T05:32:15.409Z,-10
2023-07-16T05:33:21.674Z,-10
2023-07-16T05:34:27.947Z,-9
2023-07-16T05:35:34.220Z,-9
2023-07-16T05:36:40.501Z,-10
2023-07-16T05:37:46.760Z,-10
2023-07-16T05:38:53.028Z,-10
2023-07-16T05:39:59.302Z,-10
2023-07-16T05:41:04.618Z,-9
2023-07-16T05:42:10.879Z,-7
2023-07-16T05:43:17.131Z,-7
2023-07-16T05:44:23.401Z,-9
2023-07-16T05:45:29.776Z,-9
2023-07-16T05:46:34.979Z,-10
2023-07-16T05:47:41.251Z,-10
2023-07-16T05:48:47.537Z,-10
2023-07-16T05:49:53.788Z,-10
2023-07-16T05:51:00.069Z,-10
2023-07-16T05:52:06.350Z,-10
2023-07-16T05:53:12.603Z,-10
2023-07-16T05:54:18.868Z,-10
2023-07-16T05:55:25.148Z,-10
2023-07-16T05:56:31.446Z,-10
2023-07-16T05:57:37.696Z,-10
2023-07-16T05:58:44.024Z,-10
2023-07-16T05:59:50.264Z,-10
2023-07-16T06:00:55.565Z,-10
2023-07-16T06:02:01.803Z,-10
2023-07-16T06:03:08.075Z,-10
2023-07-16T06:04:14.345Z,-10
2023-07-16T06:05:20.686Z,-10
2023-07-16T06:06:26.902Z,-10
2023-07-16T06:07:33.153Z,-10
2023-07-16T06:08:39.489Z,-10
2023-07-16T06:09:45.706Z,-10
2023-07-16T06:10:51.977Z,-10
2023-07-16T06:11:58.243Z,-10
2023-07-16T06:13:04.516Z,-10
2023-07-16T06:14:10.793Z,-10
2023-07-16T06:15:16.086Z,-10
2023-07-16T06:16:22.372Z,-10
2023-07-16T06:17:28.626Z,-10
2023-07-16T06:18:34.900Z,-10
2023-07-16T06:19:41.189Z,-10
2023-07-16T06:20:47.447Z,-10
2023-07-16T06:21:53.736Z,-10
2023-07-16T06:22:59.976Z,-10
2023-07-16T06:24:06.255Z,-10
2023-07-16T06:25:12.514Z,-10
2023-07-16T06:26:18.791Z,-10
2023-07-16T06:27:25.055Z,-10
2023-07-16T06:28:31.342Z,-10
2023-07-16T06:29:36.628Z,-10
2023-07-16T06:30:42.904Z,-10
2023-07-16T06:31:49.172Z,-10
2023-07-16T06:32:55.445Z,-10
2023-07-16T06:34:01.716Z,-10
2023-07-16T06:35:07.992Z,-10
2023-07-16T06:36:14.265Z,-10
2023-07-16T06:37:20.539Z,-10
2023-07-16T06:38:26.803Z,-10
2023-07-16T06:39:33.087Z,-10
2023-07-16T06:40:39.407Z,-10
2023-07-16T06:41:45.622Z,-10
2023-07-16T06:42:51.891Z,-10
2023-07-16T06:43:57.182Z,-10
2023-07-16T06:45:03.468Z,-10
2023-07-16T06:46:09.727Z,-10
2023-07-16T06:47:16.001Z,-10
2023-07-16T06:48:22.269Z,-10
2023-07-16T06:49:28.535Z,-10
2023-07-16T06:50:34.815Z,-10
2023-07-16T06:51:41.085Z,-10
2023-07-16T06:52:47.352Z,-10
2023-07-16T06:53:53.643Z,-10
2023-07-16T06:54:59.908Z,-10
2023-07-16T06:56:06.209Z,-10
2023-07-16T06:57:12.455Z,-10
2023-07-16T06:58:17.736Z,-10
2023-07-16T06:59:24.004Z,-10
2023-07-16T07:00:30.280Z,-10
2023-07-16T07:01:36.562Z,-10
2023-07-16T07:02:42.817Z,-10
2023-07-16T07:03:49.114Z,-10
2023-07-16T07:04:55.366Z,-10
2023-07-16T07:06:01.632Z,-10
2023-07-16T07:07:07.920Z,-10
2023-07-16T07:08:14.187Z,-10
2023-07-16T07:09:20.455Z,-10
2023-07-16T07:10:26.730Z,-10
2023-07-16T07:11:33.005Z,-10
2023-07-16T07:12:38.288Z,-10
2023-07-16T07:13:44.581Z,-10
2023-07-16T07:14:50.837Z,-10
2023-07-16T07:15:57.112Z,-10
2023-07-16T07:17:03.379Z,-10
2023-07-16T07:18:09.649Z,-10
2023-07-16T07:19:15.932Z,-10
2023-07-16T07:20:22.198Z,-10
2023-07-16T07:21:28.558Z,-10
2023-07-16T07:22:34.739Z,-10
2023-07-16T07:23:41.010Z,-10
2023-07-16T07:24:47.281Z,-10
2023-07-16T07:25:53.571Z,-10
2023-07-16T07:26:58.850Z,-10
2023-07-16T07:28:05.123Z,-10
2023-07-16T07:29:11.387Z,-10
2023-07-16T07:30:17.668Z,-10
2023-07-16T07:31:23.927Z,-10
2023-07-16T07:32:30.213Z,-10
2023-07-16T07:33:36.469Z,-10
2023-07-16T07:34:42.753Z,-10
2023-07-16T07:35:49.017Z,-10
2023-07-16T07:36:55.292Z,-10
2023-07-16T07:38:01.582Z,-10
2023-07-16T07:39:07.833Z,-10
2023-07-16T07:40:14.111Z,-10
2023-07-16T07:41:19.396Z,-10
2023-07-16T07:42:25.672Z,-10
2023-07-16T07:43:31.943Z,-10
2023-07-16T07:44:38.216Z,-10
2023-07-16T07:45:44.492Z,-10
2023-07-16T07:46:50.758Z,-10
2023-07-16T07:47:57.084Z,-10
2023-07-16T07:49:03.326Z,-10
2023-07-16T07:50:09.577Z,-10
2023-07-16T07:51:15.845Z,-10
2023-07-16T07:52:22.112Z,-10
2023-07-16T07:53:28.389Z,-10
2023-07-16T07:54:34.670Z,-10
2023-07-16T07:56:46.224Z,-10
2023-07-16T07:57:52.593Z,-10
2023-07-16T07:58:58.782Z,-10
2023-07-16T08:00:05.041Z,-10
2023-07-16T08:01:11.315Z,-10
2023-07-16T08:02:17.589Z,-10
2023-07-16T08:03:23.848Z,-10
2023-07-16T08:04:30.132Z,-10
2023-07-16T08:05:36.448Z,-10
2023-07-16T08:06:42.678Z,-10
2023-07-16T08:07:48.939Z,-10
2023-07-16T08:08:55.297Z,-10
2023-07-16T08:10:00.497Z,-10
2023-07-16T08:11:06.781Z,-10
2023-07-16T08:12:13.041Z,-10
2023-07-16T08:13:19.336Z,-10
2023-07-16T08:14:25.591Z,-10
2023-07-16T08:15:31.867Z,-10
2023-07-16T08:16:38.225Z,-10
2023-07-16T08:17:44.410Z,-10
2023-07-16T08:18:50.685Z,-10
2023-07-16T08:19:56.966Z,-10
2023-07-16T08:21:03.228Z,-10
2023-07-16T08:22:09.491Z,-10
2023-07-16T08:23:15.771Z,-10
2023-07-16T08:24:21.064Z,-10
2023-07-16T08:25:27.334Z,-10
2023-07-16T08:26:33.600Z,-10
2023-07-16T08:27:39.897Z,-10
2023-07-16T08:28:46.152Z,-10
2023-07-16T08:29:52.413Z,-10
2023-07-16T08:30:58.692Z,-10
2023-07-16T08:32:04.984Z,-10
2023-07-16T08:33:11.235Z,-10
2023-07-16T08:34:17.513Z,-10
2023-07-16T08:35:23.773Z,-10
2023-07-16T08:36:30.056Z,-10
2023-07-16T08:37:36.318Z,-10
2023-07-16T08:38:41.608Z,-10
2023-07-16T08:39:47.883Z,-10
2023-07-16T08:40:54.177Z,-10
2023-07-16T08:42:00.592Z,-10
2023-07-16T08:43:06.697Z,-10
2023-07-16T08:44:13.032Z,-10
2023-07-16T08:45:19.250Z,-10
2023-07-16T08:46:25.519Z,-10
2023-07-16T08:47:31.783Z,-10
2023-07-16T08:48:38.169Z,-10
2023-07-16T08:49:44.338Z,-10
2023-07-16T08:50:50.644Z,-10
2023-07-16T08:51:56.881Z,-10
2023-07-16T08:53:02.150Z,-10
2023-07-16T08:54:08.532Z,-10
2023-07-16T08:55:14.702Z,-10
2023-07-16T08:56:20.977Z,-10
2023-07-16T08:57:27.247Z,-10
2023-07-16T08:58:33.524Z,-10
2023-07-16T08:59:39.807Z,-10
2023-07-16T09:00:46.063Z,-10
2023-07-16T09:01:52.345Z,-10
2023-07-16T09:02:58.615Z,-10
2023-07-16T09:04:04.896Z,-10
2023-07-16T09:05:11.151Z,-10
2023-07-16T09:06:17.424Z,-10
2023-07-16T09:07:22.718Z,-10
2023-07-16T09:08:28.990Z,-10
2023-07-16T09:09:35.252Z,-10
2023-07-16T09:10:41.530Z,-10
2023-07-16T09:11:47.800Z,-10
2023-07-16T09:12:54.090Z,-10
2023-07-16T09:14:00.359Z,-10
2023-07-16T09:15:06.640Z,-10
2023-07-16T09:16:12.884Z,-10
2023-07-16T09:17:19.177Z,-10
2023-07-16T09:18:25.459Z,-10
2023-07-16T09:19:31.724Z,-10
2023-07-16T09:20:37.988Z,-10
2023-07-16T09:21:43.269Z,-10
2023-07-16T09:22:49.551Z,-10
2023-07-16T09:23:55.817Z,-10
2023-07-16T09:25:02.080Z,-10
2023-07-16T09:26:08.348Z,-10
2023-07-16T09:27:14.630Z,-10
2023-07-16T09:28:19.920Z,-10
2023-07-16T09:29:26.209Z,-10
2023-07-16T09:30:32.465Z,-10
2023-07-16T09:31:38.747Z,-10
2023-07-16T09:32:45.013Z,-10
2023-07-16T09:33:51.325Z,-10
2023-07-16T09:34:57.572Z,-10
2023-07-16T09:36:03.833Z,-10
2023-07-16T09:37:10.102Z,-10
2023-07-16T09:38:16.373Z,-10
2023-07-16T09:39:22.654Z,-10
2023-07-16T09:40:28.923Z,-10
2023-07-16T09:41:35.188Z,-10
2023-07-16T09:42:40.478Z,-10
2023-07-16T09:43:46.757Z,-10
2023-07-16T09:44:53.080Z,-10
2023-07-16T09:45:59.298Z,-10
2023-07-16T09:47:05.579Z,-10
2023-07-16T09:48:11.839Z,-10
2023-07-16T09:49:18.161Z,-10
2023-07-16T09:50:24.384Z,-10
2023-07-16T09:51:30.647Z,-10
2023-07-16T09:52:36.936Z,-10
2023-07-16T09:53:43.203Z,-10
2023-07-16T09:54:49.534Z,-10
2023-07-16T09:55:55.738Z,-10
2023-07-16T09:57:01.032Z,-10
2023-07-16T09:58:07.321Z,-10
2023-07-16T09:59:13.579Z,-10
2023-07-16T10:00:19.918Z,-10
2023-07-16T10:01:26.121Z,-10
2023-07-16T10:02:32.400Z,-10
2023-07-16T10:03:38.675Z,-10
2023-07-16T10:04:44.957Z,-10
2023-07-16T10:05:51.206Z,-10
2023-07-16T10:06:57.491Z,-10
2023-07-16T10:08:03.751Z,-10
2023-07-16T10:09:10.019Z,-10
2023-07-16T10:10:16.296Z,-10
2023-07-16T10:11:21.586Z,-10
2023-07-16T10:12:27.862Z,-10
2023-07-16T10:13:34.127Z,-10
2023-07-16T10:14:40.415Z,-10
2023-07-16T10:15:46.670Z,-10
2023-07-16T10:16:52.951Z,-10
2023-07-16T10:17:59.212Z,-10
2023-07-16T10:19:05.508Z,-10
2023-07-16T10:20:11.766Z,-10
2023-07-16T10:21:18.048Z,-10
2023-07-16T10:22:24.302Z,-10
2023-07-16T10:23:30.585Z,-10
2023-07-16T10:24:36.857Z,-10
2023-07-16T10:25:43.135Z,-10
2023-07-16T10:26:48.528Z,-10
2023-07-16T10:27:54.689Z,-10
2023-07-16T10:29:00.954Z,-10
2023-07-16T10:30:07.276Z,-10
2023-07-16T10:31:13.555Z,-10
2023-07-16T10:32:19.819Z,-10
2023-07-16T10:33:26.049Z,-10
2023-07-16T10:34:32.327Z,-10
2023-07-16T10:35:38.681Z,-10
2023-07-16T10:36:44.933Z,-10
2023-07-16T10:37:51.134Z,-10
2023-07-16T10:38:57.413Z,-10
2023-07-16T10:40:03.675Z,-10
2023-07-16T10:41:09.066Z,-10
2023-07-16T10:42:15.244Z,-10
2023-07-16T10:43:21.511Z,-10
2023-07-16T10:44:27.787Z,-10
2023-07-16T10:45:34.087Z,-10
2023-07-16T10:46:40.351Z,-10
2023-07-16T10:47:46.624Z,-10
2023-07-16T10:48:52.873Z,-10
2023-07-16T10:49:59.138Z,-10
2023-07-16T10:51:05.412Z,-10
2023-07-16T10:52:11.682Z,-10
2023-07-16T10:53:17.962Z,-10
2023-07-16T10:54:24.233Z,-10
2023-07-16T10:55:29.532Z,-10
2023-07-16T10:56:35.785Z,-10
2023-07-16T10:57:42.077Z,-10
2023-07-16T10:59:54.602Z,-10
2023-07-16T11:01:00.876Z,-10
2023-07-16T11:02:07.156Z,-10
2023-07-16T11:03:13.417Z,-10
2023-07-16T11:04:19.712Z,-10
2023-07-16T11:05:25.960Z,-10
2023-07-16T11:06:32.235Z,-10
2023-07-16T11:07:38.523Z,-10
2023-07-16T11:09:51.164Z,-10
2023-07-16T11:10:56.346Z,-10
2023-07-16T11:12:02.616Z,-10
2023-07-16T11:13:08.904Z,-10
2023-07-16T11:14:15.171Z,-10
2023-07-16T11:15:21.439Z,-10
2023-07-16T11:16:27.763Z,-10
2023-07-16T11:17:34.002Z,-10
2023-07-16T11:18:40.264Z,-10
2023-07-16T11:19:46.516Z,-10
2023-07-16T11:20:52.866Z,-10
2023-07-16T11:21:59.122Z,-10
2023-07-16T11:23:05.384Z,-10
2023-07-16T11:24:11.620Z,-10
2023-07-16T11:25:16.904Z,-10
2023-07-16T11:26:23.164Z,-10
2023-07-16T11:27:29.446Z,-10
2023-07-16T11:28:35.707Z,-10
2023-07-16T11:29:41.986Z,-10
2023-07-16T11:30:48.255Z,-10
2023-07-16T11:31:54.521Z,-10
2023-07-16T11:33:00.841Z,-10
2023-07-16T11:34:07.092Z,-10
2023-07-16T11:35:13.347Z,-10
2023-07-16T11:36:19.619Z,-10
2023-07-16T11:37:25.891Z,-10
2023-07-16T11:38:32.157Z,-10
2023-07-16T11:39:37.451Z,-10
2023-07-16T11:40:43.736Z,-10
2023-07-16T11:41:50.002Z,-10
2023-07-16T11:42:56.262Z,-10
2023-07-16T11:44:02.548Z,-10
2023-07-16T11:45:08.811Z,-10
2023-07-16T11:46:15.093Z,-10
2023-07-16T11:47:21.351Z,-10
2023-07-16T11:48:27.634Z,-10
2023-07-16T11:49:33.903Z,-10
2023-07-16T11:50:40.167Z,-10
2023-07-16T11:51:46.446Z,-10
2023-07-16T11:52:52.736Z,-10
2023-07-16T11:53:58.002Z,-10
2023-07-16T11:55:04.281Z,-10
2023-07-16T11:56:10.543Z,-10
2023-07-16T11:57:16.827Z,-10
2023-07-16T11:58:23.138Z,-10
2023-07-16T11:59:29.483Z,-10
2023-07-16T12:00:35.642Z,-10
2023-07-16T12:01:41.918Z,-10
2023-07-16T12:02:48.192Z,-10
2023-07-16T12:03:54.470Z,-10
2023-07-16T12:05:00.745Z,-10
2023-07-16T12:06:07.048Z,-10
2023-07-16T12:07:13.273Z,-10
2023-07-16T12:08:18.594Z,-10
2023-07-16T12:09:24.836Z,-10
2023-07-16T12:10:31.148Z,-10
2023-07-16T12:11:37.384Z,-10
2023-07-16T12:12:43.653Z,-10
2023-07-16T12:13:49.932Z,-10
2023-07-16T12:14:56.228Z,-10
2023-07-16T12:16:02.464Z,-10
2023-07-16T12:17:08.742Z,-10
2023-07-16T12:18:15.020Z,-10
2023-07-16T12:19:21.300Z,-10
2023-07-16T12:20:27.559Z,-10
2023-07-16T12:21:33.910Z,-10
2023-07-16T12:22:39.124Z,-10
2023-07-16T12:23:45.399Z,-10
2023-07-16T12:24:51.662Z,-10
2023-07-16T12:25:57.939Z,-10
2023-07-16T12:27:04.207Z,-10
2023-07-16T12:28:10.545Z,-10
2023-07-16T12:29:16.781Z,-10
2023-07-16T12:30:23.032Z,-10
2023-07-16T12:31:29.307Z,-10
2023-07-16T12:32:35.572Z,-10
2023-07-16T12:33:41.876Z,-10
2023-07-16T12:34:48.119Z,-10
2023-07-16T12:35:54.386Z,-10
2023-07-16T12:36:59.706Z,-10
2023-07-16T12:38:05.955Z,-10
2023-07-16T12:39:12.217Z,-10
2023-07-16T12:40:18.499Z,-10
2023-07-16T12:41:24.762Z,-10
2023-07-16T12:42:31.041Z,-10
2023-07-16T12:43:37.310Z,-10
2023-07-16T12:44:43.584Z,-10
2023-07-16T12:45:49.856Z,-10
2023-07-16T12:46:56.132Z,-10
2023-07-16T12:48:02.399Z,-10
2023-07-16T12:49:08.664Z,-10
2023-07-16T12:50:14.945Z,-10
2023-07-16T12:51:20.256Z,-10
2023-07-16T12:52:26.524Z,-10
2023-07-16T12:53:32.781Z,-10
2023-07-16T12:54:39.055Z,-10
2023-07-16T12:55:45.324Z,-10
2023-07-16T12:56:51.598Z,-10
2023-07-16T12:57:57.859Z,-10
2023-07-16T12:59:04.150Z,-10
2023-07-16T13:00:10.417Z,-10
2023-07-16T13:01:16.679Z,-10
2023-07-16T13:02:22.952Z,-10
2023-07-16T13:03:29.225Z,-10
2023-07-16T13:04:35.510Z,-10
2023-07-16T13:05:40.788Z,-10
2023-07-16T13:06:47.059Z,-10
2023-07-16T13:07:53.331Z,-10
2023-07-16T13:08:59.623Z,-10
2023-07-16T13:10:04.930Z,-10
2023-07-16T13:11:11.201Z,-10
2023-07-16T13:12:17.443Z,-10
2023-07-16T13:13:23.720Z,-10
2023-07-16T13:14:30.011Z,-10
2023-07-16T13:15:36.260Z,-10
2023-07-16T13:16:42.536Z,-10
2023-07-16T13:17:48.806Z,-10
2023-07-16T13:18:55.076Z,-10
2023-07-16T13:20:01.346Z,-10
2023-07-16T13:21:07.622Z,-10
2023-07-16T13:22:13.887Z,-10
2023-07-16T13:23:20.174Z,-10
2023-07-16T13:24:25.465Z,-10
2023-07-16T13:25:31.721Z,-10
2023-07-16T13:26:38.006Z,-10
2023-07-16T13:27:44.267Z,-10
2023-07-16T13:28:50.543Z,-10
2023-07-16T13:29:56.823Z,-10
2023-07-16T13:31:03.082Z,-10
2023-07-16T13:32:09.357Z,-10
2023-07-16T13:33:15.731Z,-10
2023-07-16T13:34:21.950Z,-10
2023-07-16T13:35:28.179Z,-10
2023-07-16T13:36:34.450Z,-10
2023-07-16T13:37:40.849Z,-10
2023-07-16T13:38:46.012Z,-10
2023-07-16T13:39:52.310Z,-10
2023-07-16T13:40:58.700Z,-10
2023-07-16T13:42:04.828Z,-10
2023-07-16T13:43:11.104Z,-10
2023-07-16T13:44:17.389Z,-10
2023-07-16T13:45:23.675Z,-10
2023-07-16T13:46:29.915Z,-10
2023-07-16T13:47:36.196Z,-10
2023-07-16T13:48:42.458Z,-10
2023-07-16T13:49:48.738Z,-10
2023-07-16T13:50:55.014Z,-10
2023-07-16T13:52:01.281Z,-10
2023-07-16T13:53:06.576Z,-10
2023-07-16T13:54:12.921Z,-10
2023-07-16T13:55:19.122Z,-10
2023-07-16T13:56:25.383Z,-10
2023-07-16T13:57:31.661Z,-10
2023-07-16T13:58:37.967Z,-10
2023-07-16T13:59:44.210Z,-10
2023-07-16T14:00:50.479Z,-10
2023-07-16T14:01:56.758Z,-10
2023-07-16T14:03:03.022Z,-10
2023-07-16T14:04:09.297Z,-10
2023-07-16T14:05:15.566Z,-10
2023-07-16T14:06:21.833Z,-10
2023-07-16T14:07:27.127Z,-10
2023-07-16T14:08:33.397Z,-10
2023-07-16T14:09:39.672Z,-10
2023-07-16T14:10:45.946Z,-10
2023-07-16T14:11:52.215Z,-10
2023-07-16T14:12:58.514Z,-10
2023-07-16T14:14:04.761Z,-10
2023-07-16T14:15:11.038Z,-10
2023-07-16T14:16:17.306Z,-10
2023-07-16T14:17:23.579Z,-10
2023-07-16T14:18:29.846Z,-10
2023-07-16T14:19:36.123Z,-10
2023-07-16T14:20:42.396Z,-10
2023-07-16T14:21:47.681Z,-10
2023-07-16T14:22:53.957Z,-10
2023-07-16T14:24:00.215Z,-10
2023-07-16T14:25:06.497Z,-10
2023-07-16T14:26:12.763Z,-10
2023-07-16T14:27:19.057Z,-10
2023-07-16T14:28:25.311Z,-10
2023-07-16T14:29:31.591Z,-10
2023-07-16T14:30:37.907Z,-10
2023-07-16T14:31:44.134Z,-10
2023-07-16T14:32:50.408Z,-10
2023-07-16T14:33:56.674Z,-10
2023-07-16T14:35:02.948Z,-10
2023-07-16T14:36:08.240Z,-10
2023-07-16T14:37:14.514Z,-10
2023-07-16T14:38:20.780Z,-10
2023-07-16T14:39:27.063Z,-10
2023-07-16T14:40:33.336Z,-10
2023-07-16T14:41:39.614Z,-10
2023-07-16T14:42:45.884Z,-10
2023-07-16T14:43:52.150Z,-10
2023-07-16T14:44:58.418Z,-10
2023-07-16T14:46:04.674Z,-10
2023-07-16T14:47:10.955Z,-10
2023-07-16T14:48:17.232Z,-10
2023-07-16T14:49:23.507Z,-10
2023-07-16T14:50:28.801Z,-10
2023-07-16T14:51:35.060Z,-10
2023-07-16T14:52:41.328Z,-10
2023-07-16T14:53:47.619Z,-10
2023-07-16T14:54:53.877Z,-10
2023-07-16T14:56:00.145Z,-10
2023-07-16T14:57:06.431Z,-10
2023-07-16T14:58:12.696Z,-10
2023-07-16T14:59:18.965Z,-10
2023-07-16T15:00:25.235Z,-10
2023-07-16T15:01:31.511Z,-10
2023-07-16T15:02:37.789Z,-10
2023-07-16T15:03:44.053Z,-10
2023-07-16T15:05:55.616Z,-10
2023-07-16T15:07:01.884Z,-10
2023-07-16T15:08:08.167Z,-10
2023-07-16T15:09:14.436Z,-10
2023-07-16T15:10:20.707Z,-10
2023-07-16T15:11:27.031Z,-10
2023-07-16T15:12:33.291Z,-10
2023-07-16T15:13:39.512Z,-10
2023-07-16T15:14:45.790Z,-10
2023-07-16T15:15:52.071Z,-10
2023-07-16T15:16:58.338Z,-10
2023-07-16T15:18:04.682Z,-10
2023-07-16T15:19:09.911Z,-10